Terminal Aerodrome Forecast
Issued by NWS

Home | Current Version | Previous Version | Text Only | Print | Product List | Glossary On
Versions: 1 2 3 4 5 6 7 8 9 10 11 12 13 14 15 16 17
000
FTUS46 KSTO 171720
TAFRBL
TAF
KRBL 171720Z 1718/1818 30003KT P6SM OVC025
     FM180300 27003KT 6SM BR OVC010
     FM180600 20003KT 5SM BR OVC003
     FM181300 18010KT 3SM -RA BR OVC015=

USA.gov is the U.S. government's official web portal to all federal, state and local government web resources and services.